Nearby METAR Reports

 

K8A0 - Albertville Muni, Alabama, USA
Distance from station: SW 1mi, 2km
Updated: Wed, 21-Nov-2018 8:55am CST
Partly cloudy
Partly cloudy
 Wind from N
Wind: N 5 mph , 7 km/h
Temperature: 37°F , 3°C
Wind Chill: 33°F , 1°C
Dew Point: 37°F , 3°C
Humidity: 100%
Barometer: 30.35 inHg , 1027.8 hPa
Clouds: Partly cloudy
Visibility: 7 miles , 11 km
Cloud details: Partly cloudy 300 ft
Partly cloudy 800 ft
2018/11/21 14:55 K8A0 211455Z AUTO 36004KT 7SM SCT003 SCT008 03/03 A3035 RMK AO2
KGAD - Gadsden Muni, Alabama, USA
Distance from station: SSE 21mi, 35km
Updated: Wed, 21-Nov-2018 8:56am CST
Clear
Clear
 Wind from N
Wind: N 7 mph , 11 km/h
Temperature: 41°F , 5°C
Wind Chill: 36°F , 2°C
Dew Point: 37°F , 3°C
Humidity: 87%
Barometer: 30.38 inHg , 1028.8 hPa
Clouds: Clear
Visibility: 10 miles , 16 km
2018/11/21 14:56 KGAD 211456Z AUTO 36006KT 10SM CLR 05/03 A3038 RMK AO2 SLP297 T00500028 51022
K4A6 - Scottsboro, Alabama, USA
Distance from station: NNE 33mi, 53km
Updated: Wed, 21-Nov-2018 8:55am CST
Mist, Clear
Mist, Clear
 Wind from calm
Wind: Calm
Temperature: 34°F , 1°C
Dew Point: 34°F , 1°C
Humidity: 100%
Barometer: 30.39 inHg , 1029.1 hPa
Summary: Mist
Clouds: Clear
Visibility: 2 1/2 miles , 4 km
2018/11/21 14:55 K4A6 211455Z AUTO 00000KT 2 1/2SM BR CLR 01/01 A3039 RMK AO2
 
K4A9 - Ft Payne/Isbell, Alabama, USA
Distance from station: ENE 33mi, 54km
Updated: Wed, 21-Nov-2018 8:55am CST
Clear
Clear
 Wind from ESE
Wind: ESE 3 mph , 6 km/h
Temperature: 39°F , 4°C
Dew Point: 32°F , 0°C
Humidity: 75%
Barometer: 30.34 inHg , 1027.4 hPa
Clouds: Clear
Visibility: 10 miles , 16 km
2018/11/21 14:55 K4A9 211455Z AUTO 12003KT 10SM CLR 04/00 A3034 RMK AO2 LTG DSNT SW T00360004
KCMD - Cullman/Folsom F, Alabama, USA
Distance from station: W 35mi, 57km
Updated: Wed, 21-Nov-2018 8:55am CST
Mist, Partly cloudy
Mist, Partly cloudy
 Wind from NNE
Wind: NNE 5 mph , 7 km/h
Temperature: 36°F , 2°C
Wind Chill: 32°F , 0°C
Dew Point: 34°F , 1°C
Humidity: 93%
Barometer: 30.39 inHg , 1029.1 hPa
Summary: Mist
Clouds: Partly cloudy
Visibility: 5 miles , 8 km
Cloud details: Partly cloudy 400 ft
2018/11/21 14:55 KCMD 211455Z AUTO 02004KT 5SM BR SCT004 02/01 A3039 RMK AO2 T00200010
KHUA - Redstone Arsenal, Alabama, USA
Distance from station: NW 40mi, 64km
Updated: Wed, 21-Nov-2018 7:58am CST
Clear
Clear
 Wind from N
Wind: N 3 mph , 6 km/h
Temperature: 34°F , 1°C
Dew Point: 32°F , 0°C
Humidity: 93%
Barometer: 30.37 inHg , 1028.4 hPa
Clouds: Clear
Visibility: 7 miles , 11 km
2018/11/21 13:58 KHUA 211358Z AUTO 01003KT 7SM CLR 01/00 A3037 RMK AO2 SLP291 T00050002
 
KHSV - Huntsville, Alabama, USA
Distance from station: NW 42mi, 68km
Updated: Wed, 21-Nov-2018 8:53am CST
Clear
Clear
 Wind from N
Wind: N 8 mph , 13 km/h
Temperature: 43°F , 6°C
Wind Chill: 38°F , 3°C
Dew Point: 36°F , 2°C
Humidity: 76%
Barometer: 30.39 inHg , 1029.1 hPa
Clouds: Clear
Visibility: 9 miles , 14 km
2018/11/21 14:53 KHSV 211453Z 01007KT 9SM CLR 06/02 A3039 RMK AO2 SLP294 T00560022 53022
KMDQ - Huntsville/Madis, Alabama, USA
Distance from station: NNW 47mi, 75km
Updated: Wed, 21-Nov-2018 8:50am CST
Partly cloudy
Partly cloudy
 Wind from N
Wind: N 6 mph , 9 km/h
Temperature: 37°F , 3°C
Wind Chill: 32°F , 0°C
Dew Point: 34°F , 1°C
Humidity: 87%
Barometer: 30.40 inHg , 1029.5 hPa
Clouds: Partly cloudy
Visibility: 10 miles , 16 km
Cloud details: Partly cloudy 1000 ft
2018/11/21 14:50 KMDQ 211450Z AUTO 01005KT 10SM SCT010 03/01 A3040 RMK A02 T00310005
KASN - Talladega, Alabama, USA
Distance from station: SSE 48mi, 77km
Updated: Wed, 21-Nov-2018 8:55am CST
Clear
Clear
 Wind from N
Wind: N 5 mph , 7 km/h
Temperature: 41°F , 5°C
Wind Chill: 38°F , 3°C
Dew Point: 34°F , 1°C
Humidity: 76%
Barometer: 30.37 inHg , 1028.4 hPa
Clouds: Clear
Visibility: 10 miles , 16 km
2018/11/21 14:55 KASN 211455Z AUTO 35004KT 10SM CLR 05/01 A3037 RMK AO2 T00450013
 
KDCU - Decatur, Alabama, USA
Distance from station: NW 49mi, 80km
Updated: Wed, 21-Nov-2018 8:53am CST
Clear
Clear
 Wind from N
Wind: N 6 mph , 9 km/h
Temperature: 39°F , 4°C
Wind Chill: 35°F , 2°C
Dew Point: 34°F , 1°C
Humidity: 81%
Barometer: 30.40 inHg , 1029.5 hPa
Clouds: Clear
Visibility: 7 miles , 11 km
2018/11/21 14:53 KDCU 211453Z AUTO 01005KT 7SM CLR 04/01 A3040 RMK AO2 SLP298 T00390011 51023
KGKT - Sevierville, Tennessee, USA
Distance from station: NE 235mi, 378km
Updated: Wed, 21-Nov-2018 8:55am CST
Clear
Clear
 Wind from calm
Wind: Calm
Temperature: 39°F , 4°C
Dew Point: 34°F , 1°C
Humidity: 81%
Barometer: 30.34 inHg , 1027.4 hPa
Clouds: Clear
Visibility: 10 miles , 16 km
2018/11/21 14:55 KGKT 211455Z AUTO 00000KT 10SM CLR 04/01 A3034 RMK A01
KECP - Panama City, Florida, USA
Distance from station: S 330mi, 531km
Updated: Wed, 21-Nov-2018 8:53am CST
Clear
Clear
 Wind from N
Wind: N 8 mph , 13 km/h
Temperature: 52°F , 11°C
Dew Point: 41°F , 5°C
Humidity: 67%
Barometer: 30.30 inHg , 1026.1 hPa
Clouds: Clear
Visibility: 10 miles , 16 km
2018/11/21 14:53 KECP 211453Z 36007KT 10SM CLR 11/05 A3030 RMK AO2 RAB27E37 SLP273 P0000 60000 T01060050 51018
 
KNYL - Yuma MCAS, Arizona, USA
Distance from station: SW 1900mi, 3600km
Updated: Wed, 21-Nov-2018 8:57am CST
Few Clouds
Few Clouds
 Wind from N
Wind: N 5 mph , 7 km/h
Temperature: 52°F , 11°C
Dew Point: 34°F , 1°C
Humidity: 50%
Barometer: 30.10 inHg , 1019.3 hPa
Clouds: Few Clouds
Visibility: 7 miles , 11 km
Cloud details: Few Clouds 10000 ft
Few Clouds 20000 ft
2018/11/21 14:57 KNYL 211457Z 01004KT 7SM FEW100 FEW200 11/01 A3010 RMK AO2 SLP193 CONTRAILS OVHD T01110006